sensor_id;sensor_type;location;lat;lon;timestamp;P1;durP1;ratioP1;P2;durP2;ratioP2
287;SDS011;128;48.770;9.198;2023-07-29T00:01:40;7.03;;;2.33;;
287;SDS011;128;48.770;9.198;2023-07-29T00:04:07;7.80;;;2.40;;
287;SDS011;128;48.770;9.198;2023-07-29T00:06:34;5.27;;;2.70;;
287;SDS011;128;48.770;9.198;2023-07-29T00:09:00;5.20;;;2.97;;
287;SDS011;128;48.770;9.198;2023-07-29T00:11:26;5.87;;;2.57;;
287;SDS011;128;48.770;9.198;2023-07-29T00:13:52;7.50;;;2.40;;
287;SDS011;128;48.770;9.198;2023-07-29T00:16:18;4.13;;;2.50;;
287;SDS011;128;48.770;9.198;2023-07-29T00:18:47;6.07;;;2.30;;
287;SDS011;128;48.770;9.198;2023-07-29T00:21:12;7.27;;;2.57;;
287;SDS011;128;48.770;9.198;2023-07-29T00:23:38;5.97;;;2.30;;
287;SDS011;128;48.770;9.198;2023-07-29T00:26:04;2.77;;;1.83;;
287;SDS011;128;48.770;9.198;2023-07-29T00:28:30;5.53;;;2.33;;
287;SDS011;128;48.770;9.198;2023-07-29T00:30:56;6.10;;;2.13;;
287;SDS011;128;48.770;9.198;2023-07-29T00:33:22;6.10;;;2.47;;
287;SDS011;128;48.770;9.198;2023-07-29T00:35:48;3.30;;;1.83;;
287;SDS011;128;48.770;9.198;2023-07-29T00:38:14;3.77;;;2.07;;
287;SDS011;128;48.770;9.198;2023-07-29T00:40:40;7.60;;;2.23;;
287;SDS011;128;48.770;9.198;2023-07-29T00:43:06;3.20;;;2.17;;
287;SDS011;128;48.770;9.198;2023-07-29T00:45:32;14.90;;;2.50;;
287;SDS011;128;48.770;9.198;2023-07-29T00:47:59;3.90;;;1.80;;
287;SDS011;128;48.770;9.198;2023-07-29T00:50:25;2.60;;;1.83;;
287;SDS011;128;48.770;9.198;2023-07-29T00:52:52;3.00;;;1.90;;
287;SDS011;128;48.770;9.198;2023-07-29T00:55:19;7.77;;;2.20;;
287;SDS011;128;48.770;9.198;2023-07-29T00:57:45;3.80;;;2.27;;
287;SDS011;128;48.770;9.198;2023-07-29T01:00:13;4.40;;;2.10;;
287;SDS011;128;48.770;9.198;2023-07-29T01:02:40;3.83;;;2.33;;
287;SDS011;128;48.770;9.198;2023-07-29T01:05:06;6.90;;;1.93;;
287;SDS011;128;48.770;9.198;2023-07-29T01:15:28;5.17;;;2.20;;
287;SDS011;128;48.770;9.198;2023-07-29T01:17:59;3.50;;;2.47;;
287;SDS011;128;48.770;9.198;2023-07-29T01:20:29;4.57;;;2.57;;
287;SDS011;128;48.770;9.198;2023-07-29T01:22:56;6.03;;;3.30;;
287;SDS011;128;48.770;9.198;2023-07-29T01:25:22;12.53;;;3.23;;
287;SDS011;128;48.770;9.198;2023-07-29T01:27:49;3.40;;;2.10;;
287;SDS011;128;48.770;9.198;2023-07-29T01:30:16;7.27;;;2.40;;
287;SDS011;128;48.770;9.198;2023-07-29T01:32:49;4.63;;;2.40;;
287;SDS011;128;48.770;9.198;2023-07-29T01:35:19;5.40;;;2.77;;
287;SDS011;128;48.770;9.198;2023-07-29T01:37:48;5.60;;;2.50;;
287;SDS011;128;48.770;9.198;2023-07-29T01:40:15;6.60;;;2.50;;
287;SDS011;128;48.770;9.198;2023-07-29T01:42:42;6.67;;;2.63;;
287;SDS011;128;48.770;9.198;2023-07-29T01:45:08;4.43;;;2.53;;
287;SDS011;128;48.770;9.198;2023-07-29T01:47:34;4.03;;;2.07;;
287;SDS011;128;48.770;9.198;2023-07-29T01:50:00;4.97;;;2.10;;
287;SDS011;128;48.770;9.198;2023-07-29T01:52:26;13.13;;;2.50;;
287;SDS011;128;48.770;9.198;2023-07-29T01:54:51;4.53;;;2.47;;
287;SDS011;128;48.770;9.198;2023-07-29T01:57:17;4.10;;;1.90;;
287;SDS011;128;48.770;9.198;2023-07-29T01:59:43;3.63;;;2.10;;
287;SDS011;128;48.770;9.198;2023-07-29T02:02:09;3.30;;;2.07;;
287;SDS011;128;48.770;9.198;2023-07-29T02:04:35;3.83;;;2.33;;
287;SDS011;128;48.770;9.198;2023-07-29T02:07:01;2.60;;;1.90;;
287;SDS011;128;48.770;9.198;2023-07-29T02:09:27;4.00;;;2.30;;
287;SDS011;128;48.770;9.198;2023-07-29T02:11:54;2.73;;;1.80;;
287;SDS011;128;48.770;9.198;2023-07-29T02:14:20;3.37;;;2.10;;
287;SDS011;128;48.770;9.198;2023-07-29T02:16:46;8.10;;;2.43;;
287;SDS011;128;48.770;9.198;2023-07-29T02:19:12;4.67;;;1.93;;
287;SDS011;128;48.770;9.198;2023-07-29T02:21:37;5.23;;;2.23;;
287;SDS011;128;48.770;9.198;2023-07-29T02:24:03;3.30;;;2.00;;
287;SDS011;128;48.770;9.198;2023-07-29T02:26:29;4.00;;;2.67;;
287;SDS011;128;48.770;9.198;2023-07-29T02:28:55;3.37;;;2.53;;
287;SDS011;128;48.770;9.198;2023-07-29T02:31:22;8.27;;;2.43;;
287;SDS011;128;48.770;9.198;2023-07-29T02:33:48;6.33;;;2.70;;
287;SDS011;128;48.770;9.198;2023-07-29T02:36:14;6.90;;;2.90;;
287;SDS011;128;48.770;9.198;2023-07-29T02:38:40;8.77;;;3.10;;
287;SDS011;128;48.770;9.198;2023-07-29T02:41:07;7.43;;;3.30;;
287;SDS011;128;48.770;9.198;2023-07-29T02:43:34;7.70;;;2.63;;
287;SDS011;128;48.770;9.198;2023-07-29T02:46:00;8.50;;;2.60;;
287;SDS011;128;48.770;9.198;2023-07-29T02:48:26;4.47;;;2.97;;
287;SDS011;128;48.770;9.198;2023-07-29T02:50:53;5.07;;;2.33;;
287;SDS011;128;48.770;9.198;2023-07-29T02:53:19;5.33;;;2.40;;
287;SDS011;128;48.770;9.198;2023-07-29T02:55:45;10.07;;;3.13;;
287;SDS011;128;48.770;9.198;2023-07-29T02:58:11;9.47;;;2.47;;
287;SDS011;128;48.770;9.198;2023-07-29T03:00:37;6.27;;;3.27;;
287;SDS011;128;48.770;9.198;2023-07-29T03:03:06;17.10;;;2.77;;
287;SDS011;128;48.770;9.198;2023-07-29T03:05:32;4.80;;;2.57;;
287;SDS011;128;48.770;9.198;2023-07-29T03:07:58;7.73;;;2.30;;
287;SDS011;128;48.770;9.198;2023-07-29T03:10:24;6.70;;;2.40;;
287;SDS011;128;48.770;9.198;2023-07-29T03:12:50;6.70;;;2.57;;
287;SDS011;128;48.770;9.198;2023-07-29T03:15:16;5.70;;;3.30;;
287;SDS011;128;48.770;9.198;2023-07-29T03:17:42;12.40;;;3.00;;
287;SDS011;128;48.770;9.198;2023-07-29T03:20:08;4.10;;;2.50;;
287;SDS011;128;48.770;9.198;2023-07-29T03:22:34;7.70;;;2.60;;
287;SDS011;128;48.770;9.198;2023-07-29T03:25:00;4.20;;;2.17;;
287;SDS011;128;48.770;9.198;2023-07-29T03:27:26;3.30;;;2.03;;
287;SDS011;128;48.770;9.198;2023-07-29T03:29:51;3.50;;;2.20;;
287;SDS011;128;48.770;9.198;2023-07-29T03:32:17;3.30;;;2.03;;
287;SDS011;128;48.770;9.198;2023-07-29T03:34:43;6.00;;;2.00;;
287;SDS011;128;48.770;9.198;2023-07-29T03:37:09;5.40;;;2.80;;
287;SDS011;128;48.770;9.198;2023-07-29T03:39:35;3.97;;;2.70;;
287;SDS011;128;48.770;9.198;2023-07-29T03:42:01;4.90;;;2.17;;
287;SDS011;128;48.770;9.198;2023-07-29T03:44:28;4.47;;;2.10;;
287;SDS011;128;48.770;9.198;2023-07-29T03:46:54;5.97;;;2.10;;
287;SDS011;128;48.770;9.198;2023-07-29T03:49:20;7.93;;;2.23;;
287;SDS011;128;48.770;9.198;2023-07-29T03:51:45;8.93;;;2.20;;
287;SDS011;128;48.770;9.198;2023-07-29T03:54:11;2.67;;;1.90;;
287;SDS011;128;48.770;9.198;2023-07-29T03:56:37;9.10;;;2.10;;
287;SDS011;128;48.770;9.198;2023-07-29T03:59:06;3.50;;;1.83;;
287;SDS011;128;48.770;9.198;2023-07-29T04:01:32;3.70;;;2.50;;
287;SDS011;128;48.770;9.198;2023-07-29T04:03:58;13.63;;;2.70;;
287;SDS011;128;48.770;9.198;2023-07-29T04:06:24;6.93;;;3.20;;
287;SDS011;128;48.770;9.198;2023-07-29T04:08:51;5.27;;;2.40;;
287;SDS011;128;48.770;9.198;2023-07-29T04:11:16;11.80;;;2.40;;
287;SDS011;128;48.770;9.198;2023-07-29T04:13:42;3.90;;;2.20;;
287;SDS011;128;48.770;9.198;2023-07-29T04:16:08;14.80;;;2.43;;
287;SDS011;128;48.770;9.198;2023-07-29T04:18:34;14.60;;;3.23;;
287;SDS011;128;48.770;9.198;2023-07-29T04:21:00;4.27;;;2.80;;
287;SDS011;128;48.770;9.198;2023-07-29T04:23:26;10.67;;;2.67;;
287;SDS011;128;48.770;9.198;2023-07-29T04:25:52;3.00;;;2.30;;
287;SDS011;128;48.770;9.198;2023-07-29T04:28:18;4.93;;;3.10;;
287;SDS011;128;48.770;9.198;2023-07-29T04:30:44;3.80;;;2.13;;
287;SDS011;128;48.770;9.198;2023-07-29T04:33:10;3.60;;;1.90;;
287;SDS011;128;48.770;9.198;2023-07-29T04:35:36;13.47;;;2.93;;
287;SDS011;128;48.770;9.198;2023-07-29T04:38:02;5.70;;;2.53;;
287;SDS011;128;48.770;9.198;2023-07-29T04:40:28;6.10;;;2.70;;
287;SDS011;128;48.770;9.198;2023-07-29T04:42:54;26.77;;;3.50;;
287;SDS011;128;48.770;9.198;2023-07-29T04:45:20;13.90;;;2.87;;
287;SDS011;128;48.770;9.198;2023-07-29T04:47:46;5.40;;;2.80;;
287;SDS011;128;48.770;9.198;2023-07-29T04:50:12;6.27;;;2.53;;
287;SDS011;128;48.770;9.198;2023-07-29T04:52:38;6.83;;;3.10;;
287;SDS011;128;48.770;9.198;2023-07-29T04:55:04;15.73;;;3.60;;
287;SDS011;128;48.770;9.198;2023-07-29T04:57:29;9.83;;;3.97;;
287;SDS011;128;48.770;9.198;2023-07-29T04:59:55;8.43;;;3.60;;
287;SDS011;128;48.770;9.198;2023-07-29T05:02:21;14.63;;;4.27;;
287;SDS011;128;48.770;9.198;2023-07-29T05:04:47;8.90;;;4.10;;
287;SDS011;128;48.770;9.198;2023-07-29T05:07:13;7.57;;;4.30;;
287;SDS011;128;48.770;9.198;2023-07-29T05:09:39;8.00;;;3.83;;
287;SDS011;128;48.770;9.198;2023-07-29T05:12:05;11.70;;;4.20;;
287;SDS011;128;48.770;9.198;2023-07-29T05:14:31;8.90;;;3.97;;
287;SDS011;128;48.770;9.198;2023-07-29T05:16:57;10.97;;;4.37;;
287;SDS011;128;48.770;9.198;2023-07-29T05:19:23;8.13;;;4.63;;
287;SDS011;128;48.770;9.198;2023-07-29T05:21:49;10.60;;;3.73;;
287;SDS011;128;48.770;9.198;2023-07-29T05:24:15;6.80;;;3.37;;
287;SDS011;128;48.770;9.198;2023-07-29T05:26:41;9.03;;;4.17;;
287;SDS011;128;48.770;9.198;2023-07-29T05:29:07;7.73;;;4.03;;
287;SDS011;128;48.770;9.198;2023-07-29T05:31:33;7.03;;;4.00;;
287;SDS011;128;48.770;9.198;2023-07-29T05:33:59;7.47;;;4.03;;
287;SDS011;128;48.770;9.198;2023-07-29T05:36:25;10.50;;;4.53;;
287;SDS011;128;48.770;9.198;2023-07-29T05:38:51;9.20;;;5.00;;
287;SDS011;128;48.770;9.198;2023-07-29T05:41:17;7.50;;;4.43;;
287;SDS011;128;48.770;9.198;2023-07-29T05:43:43;7.97;;;4.57;;
287;SDS011;128;48.770;9.198;2023-07-29T05:46:10;6.73;;;4.30;;
287;SDS011;128;48.770;9.198;2023-07-29T05:48:36;19.67;;;4.37;;
287;SDS011;128;48.770;9.198;2023-07-29T05:51:02;9.13;;;4.57;;
287;SDS011;128;48.770;9.198;2023-07-29T05:53:29;8.40;;;4.40;;
287;SDS011;128;48.770;9.198;2023-07-29T05:55:54;4.77;;;3.03;;
287;SDS011;128;48.770;9.198;2023-07-29T05:58:20;7.50;;;4.00;;
287;SDS011;128;48.770;9.198;2023-07-29T06:00:46;10.10;;;3.93;;
287;SDS011;128;48.770;9.198;2023-07-29T06:03:12;5.33;;;3.57;;
287;SDS011;128;48.770;9.198;2023-07-29T06:05:39;9.00;;;3.80;;
287;SDS011;128;48.770;9.198;2023-07-29T06:08:05;7.77;;;3.43;;
287;SDS011;128;48.770;9.198;2023-07-29T06:10:32;5.00;;;2.93;;
287;SDS011;128;48.770;9.198;2023-07-29T06:12:58;8.03;;;4.00;;
287;SDS011;128;48.770;9.198;2023-07-29T06:15:24;6.30;;;3.20;;
287;SDS011;128;48.770;9.198;2023-07-29T06:17:49;4.50;;;2.60;;
287;SDS011;128;48.770;9.198;2023-07-29T06:20:15;9.70;;;3.80;;
287;SDS011;128;48.770;9.198;2023-07-29T06:22:41;4.30;;;2.90;;
287;SDS011;128;48.770;9.198;2023-07-29T06:25:08;3.90;;;3.07;;
287;SDS011;128;48.770;9.198;2023-07-29T06:27:34;9.60;;;2.97;;
287;SDS011;128;48.770;9.198;2023-07-29T06:30:00;5.87;;;2.80;;
287;SDS011;128;48.770;9.198;2023-07-29T06:32:26;6.83;;;2.93;;
287;SDS011;128;48.770;9.198;2023-07-29T06:34:52;5.53;;;2.73;;
287;SDS011;128;48.770;9.198;2023-07-29T06:37:19;7.93;;;2.63;;
287;SDS011;128;48.770;9.198;2023-07-29T06:39:45;4.50;;;2.70;;
287;SDS011;128;48.770;9.198;2023-07-29T06:42:11;4.37;;;2.40;;
287;SDS011;128;48.770;9.198;2023-07-29T06:44:38;7.10;;;2.70;;
287;SDS011;128;48.770;9.198;2023-07-29T06:47:04;5.37;;;2.57;;
287;SDS011;128;48.770;9.198;2023-07-29T06:49:30;5.07;;;2.53;;
287;SDS011;128;48.770;9.198;2023-07-29T06:51:55;7.43;;;2.83;;
287;SDS011;128;48.770;9.198;2023-07-29T06:54:25;4.67;;;2.70;;
287;SDS011;128;48.770;9.198;2023-07-29T06:56:51;5.73;;;2.70;;
287;SDS011;128;48.770;9.198;2023-07-29T06:59:17;7.23;;;2.83;;
287;SDS011;128;48.770;9.198;2023-07-29T07:01:43;4.57;;;2.93;;
287;SDS011;128;48.770;9.198;2023-07-29T07:04:09;4.90;;;2.90;;
287;SDS011;128;48.770;9.198;2023-07-29T07:06:35;11.77;;;3.93;;
287;SDS011;128;48.770;9.198;2023-07-29T07:09:01;7.33;;;3.60;;
287;SDS011;128;48.770;9.198;2023-07-29T07:11:27;6.60;;;3.17;;
287;SDS011;128;48.770;9.198;2023-07-29T07:13:53;4.70;;;3.17;;
287;SDS011;128;48.770;9.198;2023-07-29T07:16:19;7.67;;;3.10;;
287;SDS011;128;48.770;9.198;2023-07-29T07:18:45;8.57;;;3.50;;
287;SDS011;128;48.770;9.198;2023-07-29T07:21:11;5.80;;;2.60;;
287;SDS011;128;48.770;9.198;2023-07-29T07:23:38;6.13;;;3.10;;
287;SDS011;128;48.770;9.198;2023-07-29T07:26:04;5.00;;;3.27;;
287;SDS011;128;48.770;9.198;2023-07-29T07:28:30;7.03;;;3.23;;
287;SDS011;128;48.770;9.198;2023-07-29T07:30:56;4.13;;;2.60;;
287;SDS011;128;48.770;9.198;2023-07-29T07:33:22;3.40;;;2.07;;
287;SDS011;128;48.770;9.198;2023-07-29T07:35:48;10.03;;;3.60;;
287;SDS011;128;48.770;9.198;2023-07-29T07:38:14;9.37;;;3.20;;
287;SDS011;128;48.770;9.198;2023-07-29T07:40:40;7.40;;;3.50;;
287;SDS011;128;48.770;9.198;2023-07-29T07:43:06;6.77;;;3.43;;
287;SDS011;128;48.770;9.198;2023-07-29T07:45:32;6.07;;;4.00;;
287;SDS011;128;48.770;9.198;2023-07-29T07:47:58;5.87;;;3.50;;
287;SDS011;128;48.770;9.198;2023-07-29T07:50:24;7.00;;;3.60;;
287;SDS011;128;48.770;9.198;2023-07-29T07:52:50;5.70;;;2.30;;
287;SDS011;128;48.770;9.198;2023-07-29T07:55:16;9.60;;;3.50;;
287;SDS011;128;48.770;9.198;2023-07-29T07:57:42;4.50;;;2.97;;
287;SDS011;128;48.770;9.198;2023-07-29T08:00:08;6.70;;;3.10;;
287;SDS011;128;48.770;9.198;2023-07-29T08:02:34;4.30;;;2.70;;
287;SDS011;128;48.770;9.198;2023-07-29T08:05:00;3.57;;;2.43;;
287;SDS011;128;48.770;9.198;2023-07-29T08:07:26;3.97;;;2.47;;
287;SDS011;128;48.770;9.198;2023-07-29T08:09:52;7.10;;;2.33;;
287;SDS011;128;48.770;9.198;2023-07-29T08:12:18;3.43;;;1.90;;
287;SDS011;128;48.770;9.198;2023-07-29T08:14:44;3.83;;;2.20;;
287;SDS011;128;48.770;9.198;2023-07-29T08:17:10;4.10;;;2.47;;
287;SDS011;128;48.770;9.198;2023-07-29T08:19:36;3.60;;;2.40;;
287;SDS011;128;48.770;9.198;2023-07-29T08:22:02;2.37;;;1.63;;
287;SDS011;128;48.770;9.198;2023-07-29T08:24:29;3.00;;;2.07;;
287;SDS011;128;48.770;9.198;2023-07-29T08:26:55;3.00;;;1.93;;
287;SDS011;128;48.770;9.198;2023-07-29T08:29:21;3.90;;;1.67;;
287;SDS011;128;48.770;9.198;2023-07-29T08:31:47;2.67;;;1.70;;
287;SDS011;128;48.770;9.198;2023-07-29T08:34:13;3.53;;;1.80;;
287;SDS011;128;48.770;9.198;2023-07-29T08:36:39;5.03;;;2.00;;
287;SDS011;128;48.770;9.198;2023-07-29T08:39:05;4.60;;;2.30;;
287;SDS011;128;48.770;9.198;2023-07-29T08:41:41;3.10;;;1.77;;
287;SDS011;128;48.770;9.198;2023-07-29T08:46:43;3.43;;;1.70;;
287;SDS011;128;48.770;9.198;2023-07-29T08:49:11;3.33;;;1.80;;
287;SDS011;128;48.770;9.198;2023-07-29T08:51:38;4.77;;;2.23;;
287;SDS011;128;48.770;9.198;2023-07-29T08:54:05;2.80;;;1.70;;
287;SDS011;128;48.770;9.198;2023-07-29T08:56:31;3.37;;;1.80;;
287;SDS011;128;48.770;9.198;2023-07-29T08:58:57;3.00;;;2.00;;
287;SDS011;128;48.770;9.198;2023-07-29T09:01:25;6.70;;;1.90;;
287;SDS011;128;48.770;9.198;2023-07-29T09:03:51;3.10;;;1.30;;
287;SDS011;128;48.770;9.198;2023-07-29T09:06:17;2.80;;;1.70;;
287;SDS011;128;48.770;9.198;2023-07-29T09:08:44;2.40;;;1.60;;
287;SDS011;128;48.770;9.198;2023-07-29T09:11:12;2.40;;;1.53;;
287;SDS011;128;48.770;9.198;2023-07-29T09:13:38;2.03;;;1.40;;
287;SDS011;128;48.770;9.198;2023-07-29T09:16:04;2.30;;;1.57;;
287;SDS011;128;48.770;9.198;2023-07-29T09:18:30;1.50;;;1.30;;
287;SDS011;128;48.770;9.198;2023-07-29T09:20:58;3.20;;;1.47;;
287;SDS011;128;48.770;9.198;2023-07-29T09:23:24;8.40;;;1.87;;
287;SDS011;128;48.770;9.198;2023-07-29T09:25:53;1.93;;;1.43;;
287;SDS011;128;48.770;9.198;2023-07-29T09:28:25;3.00;;;1.80;;
287;SDS011;128;48.770;9.198;2023-07-29T09:30:52;3.13;;;1.40;;
287;SDS011;128;48.770;9.198;2023-07-29T09:33:18;1.97;;;1.60;;
287;SDS011;128;48.770;9.198;2023-07-29T09:35:44;2.37;;;1.50;;
287;SDS011;128;48.770;9.198;2023-07-29T09:38:14;3.30;;;1.90;;
287;SDS011;128;48.770;9.198;2023-07-29T09:40:41;3.43;;;1.80;;
287;SDS011;128;48.770;9.198;2023-07-29T09:43:08;4.13;;;1.90;;
287;SDS011;128;48.770;9.198;2023-07-29T09:45:34;1.83;;;1.43;;
287;SDS011;128;48.770;9.198;2023-07-29T09:48:00;2.47;;;1.50;;
287;SDS011;128;48.770;9.198;2023-07-29T09:50:27;2.90;;;1.50;;
287;SDS011;128;48.770;9.198;2023-07-29T09:52:54;6.27;;;2.10;;
287;SDS011;128;48.770;9.198;2023-07-29T09:55:23;1.50;;;1.23;;
287;SDS011;128;48.770;9.198;2023-07-29T09:57:53;2.47;;;1.63;;
287;SDS011;128;48.770;9.198;2023-07-29T10:00:18;3.10;;;1.80;;
287;SDS011;128;48.770;9.198;2023-07-29T10:02:44;3.27;;;1.80;;
287;SDS011;128;48.770;9.198;2023-07-29T10:05:11;5.23;;;1.60;;
287;SDS011;128;48.770;9.198;2023-07-29T10:07:37;1.80;;;1.40;;
287;SDS011;128;48.770;9.198;2023-07-29T10:10:03;2.93;;;1.40;;
287;SDS011;128;48.770;9.198;2023-07-29T10:12:33;3.17;;;1.70;;
287;SDS011;128;48.770;9.198;2023-07-29T10:15:01;3.80;;;1.93;;
287;SDS011;128;48.770;9.198;2023-07-29T10:17:27;6.30;;;1.30;;
287;SDS011;128;48.770;9.198;2023-07-29T10:19:54;4.10;;;1.87;;
287;SDS011;128;48.770;9.198;2023-07-29T10:22:22;1.83;;;1.23;;
287;SDS011;128;48.770;9.198;2023-07-29T10:24:50;3.30;;;1.63;;
287;SDS011;128;48.770;9.198;2023-07-29T10:27:17;2.40;;;1.73;;
287;SDS011;128;48.770;9.198;2023-07-29T10:29:43;5.53;;;2.13;;
287;SDS011;128;48.770;9.198;2023-07-29T10:32:11;2.40;;;1.60;;
287;SDS011;128;48.770;9.198;2023-07-29T10:34:37;2.63;;;1.70;;
287;SDS011;128;48.770;9.198;2023-07-29T10:37:04;2.30;;;1.40;;
287;SDS011;128;48.770;9.198;2023-07-29T10:39:40;2.17;;;1.50;;
287;SDS011;128;48.770;9.198;2023-07-29T10:42:07;3.03;;;1.60;;
287;SDS011;128;48.770;9.198;2023-07-29T10:47:40;4.93;;;1.50;;
287;SDS011;128;48.770;9.198;2023-07-29T10:49:59;3.87;;;1.80;;
287;SDS011;128;48.770;9.198;2023-07-29T10:52:43;3.10;;;1.87;;
287;SDS011;128;48.770;9.198;2023-07-29T10:55:25;2.83;;;1.40;;
287;SDS011;128;48.770;9.198;2023-07-29T10:57:51;4.37;;;1.60;;
287;SDS011;128;48.770;9.198;2023-07-29T11:00:19;2.13;;;1.50;;
287;SDS011;128;48.770;9.198;2023-07-29T11:02:56;3.90;;;1.50;;
287;SDS011;128;48.770;9.198;2023-07-29T11:05:22;2.00;;;1.43;;
287;SDS011;128;48.770;9.198;2023-07-29T11:07:48;2.40;;;1.50;;
287;SDS011;128;48.770;9.198;2023-07-29T11:10:14;2.83;;;1.70;;
287;SDS011;128;48.770;9.198;2023-07-29T11:12:44;4.60;;;1.80;;
287;SDS011;128;48.770;9.198;2023-07-29T11:20:08;1.67;;;1.17;;
287;SDS011;128;48.770;9.198;2023-07-29T11:22:35;2.67;;;1.40;;
287;SDS011;128;48.770;9.198;2023-07-29T11:25:01;3.93;;;1.47;;
287;SDS011;128;48.770;9.198;2023-07-29T11:27:27;3.10;;;1.53;;
287;SDS011;128;48.770;9.198;2023-07-29T11:29:59;2.80;;;1.60;;
287;SDS011;128;48.770;9.198;2023-07-29T11:32:26;3.20;;;1.70;;
287;SDS011;128;48.770;9.198;2023-07-29T11:34:52;4.43;;;2.00;;
287;SDS011;128;48.770;9.198;2023-07-29T11:37:18;5.13;;;1.73;;
287;SDS011;128;48.770;9.198;2023-07-29T11:39:46;4.93;;;2.03;;
287;SDS011;128;48.770;9.198;2023-07-29T11:42:12;2.43;;;1.40;;
287;SDS011;128;48.770;9.198;2023-07-29T11:44:38;2.73;;;1.70;;
287;SDS011;128;48.770;9.198;2023-07-29T11:47:07;2.80;;;1.90;;
287;SDS011;128;48.770;9.198;2023-07-29T11:49:34;2.50;;;1.57;;
287;SDS011;128;48.770;9.198;2023-07-29T11:52:01;3.40;;;2.00;;
287;SDS011;128;48.770;9.198;2023-07-29T11:54:28;1.93;;;1.40;;
287;SDS011;128;48.770;9.198;2023-07-29T11:56:54;5.53;;;1.70;;
287;SDS011;128;48.770;9.198;2023-07-29T11:59:20;2.50;;;1.40;;
287;SDS011;128;48.770;9.198;2023-07-29T12:01:46;3.83;;;1.73;;
287;SDS011;128;48.770;9.198;2023-07-29T12:04:12;2.37;;;2.00;;
287;SDS011;128;48.770;9.198;2023-07-29T12:06:39;2.40;;;1.70;;
287;SDS011;128;48.770;9.198;2023-07-29T12:09:05;2.63;;;1.47;;
287;SDS011;128;48.770;9.198;2023-07-29T12:11:32;2.73;;;1.63;;
287;SDS011;128;48.770;9.198;2023-07-29T12:14:01;3.87;;;1.53;;
287;SDS011;128;48.770;9.198;2023-07-29T12:16:28;2.97;;;2.10;;
287;SDS011;128;48.770;9.198;2023-07-29T12:19:00;3.00;;;1.70;;
287;SDS011;128;48.770;9.198;2023-07-29T12:21:26;4.87;;;1.73;;
287;SDS011;128;48.770;9.198;2023-07-29T12:23:52;3.30;;;1.87;;
287;SDS011;128;48.770;9.198;2023-07-29T12:26:18;2.80;;;1.40;;
287;SDS011;128;48.770;9.198;2023-07-29T12:28:47;2.37;;;1.93;;
287;SDS011;128;48.770;9.198;2023-07-29T12:31:12;7.23;;;1.90;;
287;SDS011;128;48.770;9.198;2023-07-29T12:33:38;3.83;;;2.17;;
287;SDS011;128;48.770;9.198;2023-07-29T12:36:06;2.90;;;1.63;;
287;SDS011;128;48.770;9.198;2023-07-29T12:38:32;2.80;;;1.73;;
287;SDS011;128;48.770;9.198;2023-07-29T12:40:58;2.83;;;1.73;;
287;SDS011;128;48.770;9.198;2023-07-29T12:43:25;3.80;;;1.90;;
287;SDS011;128;48.770;9.198;2023-07-29T12:45:51;3.70;;;1.43;;
287;SDS011;128;48.770;9.198;2023-07-29T12:48:17;2.70;;;1.57;;
287;SDS011;128;48.770;9.198;2023-07-29T12:50:43;3.10;;;1.90;;
287;SDS011;128;48.770;9.198;2023-07-29T12:53:09;5.50;;;2.30;;
287;SDS011;128;48.770;9.198;2023-07-29T12:55:35;2.67;;;1.70;;
287;SDS011;128;48.770;9.198;2023-07-29T12:58:01;6.60;;;2.47;;
287;SDS011;128;48.770;9.198;2023-07-29T13:00:28;2.07;;;1.50;;
287;SDS011;128;48.770;9.198;2023-07-29T13:02:55;2.60;;;1.70;;
287;SDS011;128;48.770;9.198;2023-07-29T13:05:21;3.53;;;1.40;;
287;SDS011;128;48.770;9.198;2023-07-29T13:07:47;6.60;;;1.90;;
287;SDS011;128;48.770;9.198;2023-07-29T13:10:13;2.73;;;1.60;;
287;SDS011;128;48.770;9.198;2023-07-29T13:12:39;3.00;;;1.47;;
287;SDS011;128;48.770;9.198;2023-07-29T13:15:05;5.07;;;1.67;;
287;SDS011;128;48.770;9.198;2023-07-29T13:17:32;2.57;;;1.80;;
287;SDS011;128;48.770;9.198;2023-07-29T13:19:58;2.50;;;2.00;;
287;SDS011;128;48.770;9.198;2023-07-29T13:22:23;3.90;;;2.27;;
287;SDS011;128;48.770;9.198;2023-07-29T13:24:50;7.87;;;2.10;;
287;SDS011;128;48.770;9.198;2023-07-29T13:27:16;2.53;;;1.60;;
287;SDS011;128;48.770;9.198;2023-07-29T13:29:41;3.50;;;1.67;;
287;SDS011;128;48.770;9.198;2023-07-29T13:32:08;4.43;;;1.90;;
287;SDS011;128;48.770;9.198;2023-07-29T13:34:35;4.30;;;1.57;;
287;SDS011;128;48.770;9.198;2023-07-29T13:37:01;2.70;;;1.60;;
287;SDS011;128;48.770;9.198;2023-07-29T13:39:27;3.27;;;1.70;;
287;SDS011;128;48.770;9.198;2023-07-29T13:41:53;2.20;;;1.60;;
287;SDS011;128;48.770;9.198;2023-07-29T13:44:19;3.23;;;1.43;;
287;SDS011;128;48.770;9.198;2023-07-29T13:46:45;3.60;;;1.93;;
287;SDS011;128;48.770;9.198;2023-07-29T13:49:11;6.93;;;1.80;;
287;SDS011;128;48.770;9.198;2023-07-29T13:51:37;2.27;;;1.50;;
287;SDS011;128;48.770;9.198;2023-07-29T13:54:03;2.30;;;1.87;;
287;SDS011;128;48.770;9.198;2023-07-29T13:56:29;2.83;;;1.70;;
287;SDS011;128;48.770;9.198;2023-07-29T13:58:55;2.60;;;1.80;;
287;SDS011;128;48.770;9.198;2023-07-29T14:01:21;2.63;;;1.73;;
287;SDS011;128;48.770;9.198;2023-07-29T14:03:46;3.87;;;1.63;;
287;SDS011;128;48.770;9.198;2023-07-29T14:06:12;3.57;;;1.87;;
287;SDS011;128;48.770;9.198;2023-07-29T14:08:38;2.77;;;1.50;;
287;SDS011;128;48.770;9.198;2023-07-29T14:11:06;2.87;;;1.77;;
287;SDS011;128;48.770;9.198;2023-07-29T14:13:32;3.40;;;1.20;;
287;SDS011;128;48.770;9.198;2023-07-29T14:16:00;2.43;;;1.50;;
287;SDS011;128;48.770;9.198;2023-07-29T14:18:27;3.10;;;1.77;;
287;SDS011;128;48.770;9.198;2023-07-29T14:20:53;3.13;;;1.70;;
287;SDS011;128;48.770;9.198;2023-07-29T14:23:19;2.43;;;1.63;;
287;SDS011;128;48.770;9.198;2023-07-29T14:25:45;3.30;;;1.87;;
287;SDS011;128;48.770;9.198;2023-07-29T14:28:12;2.43;;;1.37;;
287;SDS011;128;48.770;9.198;2023-07-29T14:30:38;2.40;;;1.10;;
287;SDS011;128;48.770;9.198;2023-07-29T14:33:06;3.70;;;1.67;;
287;SDS011;128;48.770;9.198;2023-07-29T14:35:32;2.50;;;1.67;;
287;SDS011;128;48.770;9.198;2023-07-29T14:37:57;2.83;;;1.93;;
287;SDS011;128;48.770;9.198;2023-07-29T14:40:23;2.33;;;1.50;;
287;SDS011;128;48.770;9.198;2023-07-29T14:42:49;7.30;;;2.00;;
287;SDS011;128;48.770;9.198;2023-07-29T14:45:15;5.53;;;2.83;;
287;SDS011;128;48.770;9.198;2023-07-29T14:47:41;5.50;;;1.77;;
287;SDS011;128;48.770;9.198;2023-07-29T14:50:07;6.70;;;2.17;;
287;SDS011;128;48.770;9.198;2023-07-29T14:52:33;3.73;;;2.03;;
287;SDS011;128;48.770;9.198;2023-07-29T14:54:59;2.90;;;1.70;;
287;SDS011;128;48.770;9.198;2023-07-29T14:57:25;4.00;;;2.40;;
287;SDS011;128;48.770;9.198;2023-07-29T14:59:51;5.80;;;2.00;;
287;SDS011;128;48.770;9.198;2023-07-29T15:02:17;2.30;;;1.70;;
287;SDS011;128;48.770;9.198;2023-07-29T15:04:43;5.43;;;1.77;;
287;SDS011;128;48.770;9.198;2023-07-29T15:07:09;2.70;;;1.43;;
287;SDS011;128;48.770;9.198;2023-07-29T15:09:35;3.60;;;1.63;;
287;SDS011;128;48.770;9.198;2023-07-29T15:12:01;2.73;;;1.43;;
287;SDS011;128;48.770;9.198;2023-07-29T15:14:27;2.93;;;2.00;;
287;SDS011;128;48.770;9.198;2023-07-29T15:16:53;3.60;;;2.13;;
287;SDS011;128;48.770;9.198;2023-07-29T15:19:19;3.73;;;1.53;;
287;SDS011;128;48.770;9.198;2023-07-29T15:21:45;5.30;;;1.77;;
287;SDS011;128;48.770;9.198;2023-07-29T15:24:11;3.53;;;1.97;;
287;SDS011;128;48.770;9.198;2023-07-29T15:26:37;2.87;;;1.80;;
287;SDS011;128;48.770;9.198;2023-07-29T15:29:03;5.07;;;2.20;;
287;SDS011;128;48.770;9.198;2023-07-29T15:31:30;3.20;;;2.00;;
287;SDS011;128;48.770;9.198;2023-07-29T15:33:55;3.83;;;2.10;;
287;SDS011;128;48.770;9.198;2023-07-29T15:36:21;3.10;;;1.60;;
287;SDS011;128;48.770;9.198;2023-07-29T15:38:47;3.27;;;2.17;;
287;SDS011;128;48.770;9.198;2023-07-29T15:41:13;2.60;;;1.63;;
287;SDS011;128;48.770;9.198;2023-07-29T15:43:39;2.43;;;1.60;;
287;SDS011;128;48.770;9.198;2023-07-29T15:46:05;3.03;;;1.83;;
287;SDS011;128;48.770;9.198;2023-07-29T15:48:31;2.30;;;1.53;;
287;SDS011;128;48.770;9.198;2023-07-29T15:50:57;2.60;;;1.80;;
287;SDS011;128;48.770;9.198;2023-07-29T15:53:24;3.73;;;2.33;;
287;SDS011;128;48.770;9.198;2023-07-29T15:55:50;4.00;;;1.60;;
287;SDS011;128;48.770;9.198;2023-07-29T15:58:16;5.30;;;2.10;;